Schedule Details


Flight Number: CTN390
Departure: Franjo Tudman (LDZA) at 17:55
Arrival: Malpensa (LIMC) at 19:25
Route: KOTOR T742 NAKIT L615 ROTAR/N0359F180 L615 OSKOR

Weather Information
LDZA 162300Z 24003KT 0300 R04/1400U R22/0500D FG VV002 04/03 Q1021 NOSIG
LIMC 162250Z 36007KT CAVOK 08/08 Q1020 NOSIG
Schedule Frequency

Route Map